Bardufoss

Airport
ICAO code: 
ENDU
Summary
ICAO Region: 
EUR
Territory: 
Location: 
Bardufoss,
Elevation: 
252 ft
Coordinates: 
Aerial View: 
69° 3' 20.885" N, 18° 32' 25.438" E
Airport CFIT: 
Altimeter Temperature Error Correction
Airport GND: 
Aircraft Ground De/Anti Icing
Airport RE: 
Landing on Contaminated Runways
Airport WX: 
Low Level Turbulence
Metar
Observation
ENDU 301550Z VRB01KT 9999 FEW040 M22/M24 Q0995 NOSIG RMK WIND 1100FT 14007KT WIND 2200FT 15007KT
Station
Bardufoss
Date/Time
2021-11-30 15:50:00
Wind speed
01 kts
Lowest cloud amount
few clouds
Temperature
-22°C
Dew point
-24°C
Humidity
83%
QNH
995 hPa
Weather condition
n/a

Description

Civil/Military (RNoAF) airport serving the Målselvdalen valley region of northern Norway.

Climatology

Subarctic climate (Köppen climate classification Dfc) - Although not far from the coast, Bardufoss and Målselvdalen is known for a somewhat more continental climate, and hence, colder winters (but with less humidity and little wind) compared to the coastal areas.

Runways

Designator Length Width Surface Rops
10/28 2443 45 ASP Yes/Yes
Airport map: 
Aerial View: 

SKYbrary Partners:

Safety knowledge contributed by: